sensor_id;sensor_type;location;lat;lon;timestamp;pressure;altitude;pressure_sealevel;temperature;humidity
77062;BME280;65989;51.686;5.138;2023-02-21T00:00:14;102221.88;;;8.33;86.63
77062;BME280;65989;51.686;5.138;2023-02-21T00:02:58;102218.22;;;8.34;86.42
77062;BME280;65989;51.686;5.138;2023-02-21T00:05:42;102214.97;;;8.32;86.62
77062;BME280;65989;51.686;5.138;2023-02-21T00:08:26;102209.28;;;8.35;86.43
77062;BME280;65989;51.686;5.138;2023-02-21T00:11:10;102211.31;;;8.33;86.40
77062;BME280;65989;51.686;5.138;2023-02-21T00:13:54;102216.41;;;8.34;86.49
77062;BME280;65989;51.686;5.138;2023-02-21T00:16:37;102206.66;;;8.35;86.54
77062;BME280;65989;51.686;5.138;2023-02-21T00:19:21;102209.50;;;8.33;86.63
77062;BME280;65989;51.686;5.138;2023-02-21T00:22:05;102205.84;;;8.34;86.56
77062;BME280;65989;51.686;5.138;2023-02-21T00:24:49;102217.22;;;8.35;86.63
77062;BME280;65989;51.686;5.138;2023-02-21T00:27:33;102218.84;;;8.36;86.60
77062;BME280;65989;51.686;5.138;2023-02-21T00:30:17;102220.88;;;8.34;86.41
77062;BME280;65989;51.686;5.138;2023-02-21T00:33:01;102222.50;;;8.35;86.62
77062;BME280;65989;51.686;5.138;2023-02-21T00:35:45;102220.06;;;8.33;86.67
77062;BME280;65989;51.686;5.138;2023-02-21T00:38:29;102221.69;;;8.34;86.63
77062;BME280;65989;51.686;5.138;2023-02-21T00:41:13;102224.34;;;8.34;86.58
77062;BME280;65989;51.686;5.138;2023-02-21T00:43:57;102225.97;;;8.35;86.64
77062;BME280;65989;51.686;5.138;2023-02-21T00:46:41;102225.34;;;8.33;86.73
77062;BME280;65989;51.686;5.138;2023-02-21T00:49:25;102216.41;;;8.34;86.84
77062;BME280;65989;51.686;5.138;2023-02-21T00:52:09;102218.22;;;8.34;86.72
77062;BME280;65989;51.686;5.138;2023-02-21T00:54:53;102206.84;;;8.33;86.73
77062;BME280;65989;51.686;5.138;2023-02-21T00:57:37;102205.22;;;8.32;86.77
77062;BME280;65989;51.686;5.138;2023-02-21T01:00:22;102207.03;;;8.32;86.84
77062;BME280;65989;51.686;5.138;2023-02-21T01:03:07;102197.50;;;8.31;87.08
77062;BME280;65989;51.686;5.138;2023-02-21T01:05:52;102198.09;;;8.33;86.78
77062;BME280;65989;51.686;5.138;2023-02-21T01:08:40;102200.97;;;8.31;86.69
77062;BME280;65989;51.686;5.138;2023-02-21T01:11:24;102195.69;;;8.31;86.95
77062;BME280;65989;51.686;5.138;2023-02-21T01:14:08;102197.72;;;8.29;86.97
77062;BME280;65989;51.686;5.138;2023-02-21T01:16:52;102190.59;;;8.30;86.86
77062;BME280;65989;51.686;5.138;2023-02-21T01:19:36;102198.72;;;8.28;87.01
77062;BME280;65989;51.686;5.138;2023-02-21T01:22:20;102193.44;;;8.28;87.06
77062;BME280;65989;51.686;5.138;2023-02-21T01:25:04;102193.44;;;8.28;87.21
77062;BME280;65989;51.686;5.138;2023-02-21T01:27:49;102180.84;;;8.30;86.99
77062;BME280;65989;51.686;5.138;2023-02-21T01:30:33;102181.88;;;8.29;87.15
77062;BME280;65989;51.686;5.138;2023-02-21T01:33:16;102174.16;;;8.28;87.17
77062;BME280;65989;51.686;5.138;2023-02-21T01:36:04;102173.72;;;8.31;87.20
77062;BME280;65989;51.686;5.138;2023-02-21T01:38:48;102173.94;;;8.29;87.24
77062;BME280;65989;51.686;5.138;2023-02-21T01:41:32;102173.13;;;8.29;87.35
77062;BME280;65989;51.686;5.138;2023-02-21T01:44:38;102172.09;;;8.30;87.11
77062;BME280;65989;51.686;5.138;2023-02-21T01:47:22;102170.09;;;8.25;87.22
77062;BME280;65989;51.686;5.138;2023-02-21T01:53:26;102171.72;;;8.26;87.16
77062;BME280;65989;51.686;5.138;2023-02-21T01:56:10;102180.47;;;8.27;87.27
77062;BME280;65989;51.686;5.138;2023-02-21T01:58:57;102184.13;;;8.26;87.60
77062;BME280;65989;51.686;5.138;2023-02-21T02:01:50;102175.19;;;8.27;87.46
77062;BME280;65989;51.686;5.138;2023-02-21T02:04:36;102185.13;;;8.25;87.44
77062;BME280;65989;51.686;5.138;2023-02-21T02:07:20;102181.47;;;8.26;87.37
77062;BME280;65989;51.686;5.138;2023-02-21T02:10:05;102162.38;;;8.24;87.58
77062;BME280;65989;51.686;5.138;2023-02-21T02:13:34;102166.84;;;8.23;87.45
77062;BME280;65989;51.686;5.138;2023-02-21T02:15:59;102159.34;;;8.27;87.38
77062;BME280;65989;51.686;5.138;2023-02-21T02:18:48;102159.53;;;8.25;87.62
77062;BME280;65989;51.686;5.138;2023-02-21T02:29:26;102147.56;;;8.22;87.52
77062;BME280;65989;51.686;5.138;2023-02-21T02:32:34;102153.44;;;8.25;87.71
77062;BME280;65989;51.686;5.138;2023-02-21T02:35:42;102149.97;;;8.24;87.61
77062;BME280;65989;51.686;5.138;2023-02-21T02:38:16;102148.34;;;8.23;87.75
77062;BME280;65989;51.686;5.138;2023-02-21T02:43:22;102142.69;;;8.19;87.73
77062;BME280;65989;51.686;5.138;2023-02-21T02:49:05;102132.13;;;8.19;87.82
77062;BME280;65989;51.686;5.138;2023-02-21T02:51:33;102129.47;;;8.19;87.85
77062;BME280;65989;51.686;5.138;2023-02-21T02:53:59;102123.38;;;8.19;87.93
77062;BME280;65989;51.686;5.138;2023-02-21T02:56:25;102126.00;;;8.19;87.94
77062;BME280;65989;51.686;5.138;2023-02-21T02:59:18;102117.91;;;8.20;87.85
77062;BME280;65989;51.686;5.138;2023-02-21T03:12:45;102130.69;;;8.17;87.99
77062;BME280;65989;51.686;5.138;2023-02-21T03:18:07;102130.91;;;8.15;88.17
77062;BME280;65989;51.686;5.138;2023-02-21T03:20:35;102131.91;;;8.14;88.32
77062;BME280;65989;51.686;5.138;2023-02-21T03:23:03;102135.34;;;8.15;88.15
77062;BME280;65989;51.686;5.138;2023-02-21T03:25:30;102144.28;;;8.14;88.19
77062;BME280;65989;51.686;5.138;2023-02-21T03:27:59;102144.28;;;8.14;88.36
77062;BME280;65989;51.686;5.138;2023-02-21T03:30:24;102141.66;;;8.14;88.18
77062;BME280;65989;51.686;5.138;2023-02-21T03:32:51;102137.38;;;8.13;88.41
77062;BME280;65989;51.686;5.138;2023-02-21T03:35:18;102130.47;;;8.12;88.51
77062;BME280;65989;51.686;5.138;2023-02-21T03:37:47;102137.19;;;8.14;88.32
77062;BME280;65989;51.686;5.138;2023-02-21T03:40:20;102139.63;;;8.16;88.41
77062;BME280;65989;51.686;5.138;2023-02-21T03:42:48;102129.28;;;8.14;88.32
77062;BME280;65989;51.686;5.138;2023-02-21T03:45:14;102127.44;;;8.15;88.44
77062;BME280;65989;51.686;5.138;2023-02-21T03:47:39;102121.97;;;8.16;88.31
77062;BME280;65989;51.686;5.138;2023-02-21T03:50:04;102127.25;;;8.16;88.64
77062;BME280;65989;51.686;5.138;2023-02-21T03:52:31;102120.34;;;8.15;88.48
77062;BME280;65989;51.686;5.138;2023-02-21T03:54:56;102120.34;;;8.15;88.67
77062;BME280;65989;51.686;5.138;2023-02-21T03:57:22;102120.53;;;8.14;88.37
77062;BME280;65989;51.686;5.138;2023-02-21T03:59:47;102121.34;;;8.14;88.49
77062;BME280;65989;51.686;5.138;2023-02-21T04:02:13;102123.38;;;8.12;88.81
77062;BME280;65989;51.686;5.138;2023-02-21T04:04:38;102127.66;;;8.13;88.61
77062;BME280;65989;51.686;5.138;2023-02-21T04:07:03;102129.28;;;8.14;88.75
77062;BME280;65989;51.686;5.138;2023-02-21T04:09:29;102115.47;;;8.12;88.59
77062;BME280;65989;51.686;5.138;2023-02-21T04:11:54;102125.63;;;8.15;88.74
77062;BME280;65989;51.686;5.138;2023-02-21T04:14:20;102135.34;;;8.15;88.46
77062;BME280;65989;51.686;5.138;2023-02-21T04:16:45;102132.53;;;8.16;88.52
77062;BME280;65989;51.686;5.138;2023-02-21T04:19:10;102124.59;;;8.16;88.82
77062;BME280;65989;51.686;5.138;2023-02-21T04:21:36;102116.09;;;8.07;88.59
77062;BME280;65989;51.686;5.138;2023-02-21T04:24:01;102127.25;;;8.16;88.67
77062;BME280;65989;51.686;5.138;2023-02-21T04:26:27;102125.63;;;8.15;88.84
77062;BME280;65989;51.686;5.138;2023-02-21T04:28:54;102116.88;;;8.15;88.77
77062;BME280;65989;51.686;5.138;2023-02-21T04:31:20;102120.34;;;8.15;88.80
77062;BME280;65989;51.686;5.138;2023-02-21T04:33:46;102118.72;;;8.14;88.83
77062;BME280;65989;51.686;5.138;2023-02-21T04:36:11;102119.72;;;8.13;88.91
77062;BME280;65989;51.686;5.138;2023-02-21T04:38:36;102125.00;;;8.13;88.85
77062;BME280;65989;51.686;5.138;2023-02-21T04:41:03;102114.63;;;8.12;88.82
77062;BME280;65989;51.686;5.138;2023-02-21T04:43:28;102119.34;;;8.10;88.83
77062;BME280;65989;51.686;5.138;2023-02-21T04:45:54;102114.63;;;8.12;88.79
77062;BME280;65989;51.686;5.138;2023-02-21T04:48:19;102106.72;;;8.12;88.94
77062;BME280;65989;51.686;5.138;2023-02-21T04:50:44;102103.50;;;8.10;88.95
77062;BME280;65989;51.686;5.138;2023-02-21T04:53:10;102105.13;;;8.11;88.75
77062;BME280;65989;51.686;5.138;2023-02-21T04:55:35;102096.16;;;8.12;88.73
77062;BME280;65989;51.686;5.138;2023-02-21T04:58:01;102098.78;;;8.12;88.80
77062;BME280;65989;51.686;5.138;2023-02-21T05:00:26;102096.16;;;8.12;89.02
77062;BME280;65989;51.686;5.138;2023-02-21T05:02:52;102095.38;;;8.11;88.83
77062;BME280;65989;51.686;5.138;2023-02-21T05:05:17;102087.84;;;8.08;88.97
77062;BME280;65989;51.686;5.138;2023-02-21T05:07:43;102088.69;;;8.09;88.87
77062;BME280;65989;51.686;5.138;2023-02-21T05:10:09;102093.75;;;8.10;88.98
77062;BME280;65989;51.686;5.138;2023-02-21T05:12:35;102099.03;;;8.10;88.97
77062;BME280;65989;51.686;5.138;2023-02-21T05:15:04;102092.13;;;8.09;89.00
77062;BME280;65989;51.686;5.138;2023-02-21T05:17:29;102104.69;;;8.07;89.24
77062;BME280;65989;51.686;5.138;2023-02-21T05:19:55;102097.81;;;8.06;89.04
77062;BME280;65989;51.686;5.138;2023-02-21T05:22:21;102092.13;;;8.02;88.98
77062;BME280;65989;51.686;5.138;2023-02-21T05:24:46;102097.41;;;8.02;89.09
77062;BME280;65989;51.686;5.138;2023-02-21T05:27:14;102092.31;;;8.01;89.16
77062;BME280;65989;51.686;5.138;2023-02-21T05:29:50;102105.31;;;8.02;89.06
77062;BME280;65989;51.686;5.138;2023-02-21T05:32:17;102096.19;;;7.98;89.06
77062;BME280;65989;51.686;5.138;2023-02-21T05:34:43;102104.91;;;7.99;89.24
77062;BME280;65989;51.686;5.138;2023-02-21T05:37:11;102103.28;;;7.98;89.21
77062;BME280;65989;51.686;5.138;2023-02-21T05:39:36;102102.47;;;7.97;89.25
77062;BME280;65989;51.686;5.138;2023-02-21T05:42:02;102103.09;;;7.99;89.29
77062;BME280;65989;51.686;5.138;2023-02-21T05:44:27;102097.19;;;7.97;89.33
77062;BME280;65989;51.686;5.138;2023-02-21T05:46:52;102100.66;;;7.98;89.46
77062;BME280;65989;51.686;5.138;2023-02-21T05:49:18;102099.22;;;7.95;89.53
77062;BME280;65989;51.686;5.138;2023-02-21T05:51:43;102099.22;;;7.95;89.22
77062;BME280;65989;51.686;5.138;2023-02-21T05:54:14;102086.03;;;7.95;89.34
77062;BME280;65989;51.686;5.138;2023-02-21T05:56:41;102091.72;;;7.92;89.33
77062;BME280;65989;51.686;5.138;2023-02-21T05:59:07;102090.91;;;7.91;89.55
77062;BME280;65989;51.686;5.138;2023-02-21T06:01:33;102092.94;;;7.89;89.65
77062;BME280;65989;51.686;5.138;2023-02-21T06:03:58;102098.22;;;7.89;89.53
77062;BME280;65989;51.686;5.138;2023-02-21T06:06:24;102100.03;;;7.89;89.45
77062;BME280;65989;51.686;5.138;2023-02-21T06:08:49;102106.34;;;7.88;89.58
77062;BME280;65989;51.686;5.138;2023-02-21T06:11:22;102109.19;;;7.86;89.59
77062;BME280;65989;51.686;5.138;2023-02-21T06:13:52;102103.91;;;7.86;89.45
77062;BME280;65989;51.686;5.138;2023-02-21T06:16:18;102100.44;;;7.86;89.50
77062;BME280;65989;51.686;5.138;2023-02-21T06:18:43;102093.34;;;7.86;89.65
77062;BME280;65989;51.686;5.138;2023-02-21T06:21:09;102101.28;;;7.86;89.79
77062;BME280;65989;51.686;5.138;2023-02-21T06:23:34;102105.53;;;7.87;89.86
77062;BME280;65989;51.686;5.138;2023-02-21T06:25:59;102110.81;;;7.87;89.61
77062;BME280;65989;51.686;5.138;2023-02-21T06:28:29;102096.78;;;7.87;89.76
77062;BME280;65989;51.686;5.138;2023-02-21T06:30:55;102101.28;;;7.86;89.71
77062;BME280;65989;51.686;5.138;2023-02-21T06:33:20;102106.75;;;7.85;89.79
77062;BME280;65989;51.686;5.138;2023-02-21T06:35:46;102102.28;;;7.85;89.86
77062;BME280;65989;51.686;5.138;2023-02-21T06:38:11;102103.91;;;7.86;89.75
77062;BME280;65989;51.686;5.138;2023-02-21T06:40:36;102099.03;;;7.83;89.92
77062;BME280;65989;51.686;5.138;2023-02-21T06:43:02;102105.13;;;7.84;89.86
77062;BME280;65989;51.686;5.138;2023-02-21T06:45:27;102099.22;;;7.82;89.81
77062;BME280;65989;51.686;5.138;2023-02-21T06:47:53;102113.66;;;7.86;89.92
77062;BME280;65989;51.686;5.138;2023-02-21T06:50:18;102110.00;;;7.87;89.93
77062;BME280;65989;51.686;5.138;2023-02-21T06:52:44;102107.56;;;7.85;89.95
77062;BME280;65989;51.686;5.138;2023-02-21T06:55:09;102104.72;;;7.80;89.96
77062;BME280;65989;51.686;5.138;2023-02-21T06:57:34;102111.41;;;7.83;90.16
77062;BME280;65989;51.686;5.138;2023-02-21T07:00:00;102108.75;;;7.83;90.02
77062;BME280;65989;51.686;5.138;2023-02-21T07:02:25;102119.31;;;7.83;90.04
77062;BME280;65989;51.686;5.138;2023-02-21T07:04:50;102127.47;;;7.81;89.92
77062;BME280;65989;51.686;5.138;2023-02-21T07:07:16;102127.63;;;7.80;89.88
77062;BME280;65989;51.686;5.138;2023-02-21T07:09:41;102119.31;;;7.76;90.18
77062;BME280;65989;51.686;5.138;2023-02-21T07:12:07;102126.84;;;7.79;90.13
77062;BME280;65989;51.686;5.138;2023-02-21T07:14:33;102126.63;;;7.81;90.23
77062;BME280;65989;51.686;5.138;2023-02-21T07:16:58;102122.38;;;7.80;90.07
77062;BME280;65989;51.686;5.138;2023-02-21T07:19:24;102131.09;;;7.80;90.39
77062;BME280;65989;51.686;5.138;2023-02-21T07:21:49;102133.75;;;7.80;90.26
77062;BME280;65989;51.686;5.138;2023-02-21T07:24:14;102131.09;;;7.80;90.18
77062;BME280;65989;51.686;5.138;2023-02-21T07:26:40;102132.72;;;7.81;90.38
77062;BME280;65989;51.686;5.138;2023-02-21T07:29:06;102116.91;;;7.81;90.43
77062;BME280;65989;51.686;5.138;2023-02-21T07:31:31;102118.53;;;7.82;90.41
77062;BME280;65989;51.686;5.138;2023-02-21T07:33:58;102128.06;;;7.83;90.38
77062;BME280;65989;51.686;5.138;2023-02-21T07:36:23;102138.41;;;7.85;90.51
77062;BME280;65989;51.686;5.138;2023-02-21T07:38:48;102136.38;;;7.87;90.46
77062;BME280;65989;51.686;5.138;2023-02-21T07:41:14;102134.34;;;7.89;90.52
77062;BME280;65989;51.686;5.138;2023-02-21T07:43:40;102120.34;;;7.88;90.45
77062;BME280;65989;51.686;5.138;2023-02-21T07:46:13;102118.34;;;7.90;90.54
77062;BME280;65989;51.686;5.138;2023-02-21T07:48:38;102119.34;;;7.89;90.32
77062;BME280;65989;51.686;5.138;2023-02-21T07:51:06;102117.50;;;7.90;90.51
77062;BME280;65989;51.686;5.138;2023-02-21T07:53:31;102127.88;;;7.91;90.53
77062;BME280;65989;51.686;5.138;2023-02-21T07:55:57;102127.03;;;7.91;90.61
77062;BME280;65989;51.686;5.138;2023-02-21T07:58:22;102131.91;;;7.94;90.34
77062;BME280;65989;51.686;5.138;2023-02-21T08:00:48;102131.53;;;7.97;90.75
77062;BME280;65989;51.686;5.138;2023-02-21T08:03:13;102129.06;;;7.96;90.50
77062;BME280;65989;51.686;5.138;2023-02-21T08:05:39;102127.03;;;7.98;90.36
77062;BME280;65989;51.686;5.138;2023-02-21T08:08:08;102126.03;;;7.99;90.58
77062;BME280;65989;51.686;5.138;2023-02-21T08:10:35;102126.63;;;8.01;90.50
77062;BME280;65989;51.686;5.138;2023-02-21T08:13:01;102126.84;;;8.06;90.59
77062;BME280;65989;51.686;5.138;2023-02-21T08:15:26;102130.50;;;8.05;90.62
77062;BME280;65989;51.686;5.138;2023-02-21T08:17:51;102127.44;;;8.08;90.53
77062;BME280;65989;51.686;5.138;2023-02-21T08:20:17;102134.34;;;8.09;90.53
77062;BME280;65989;51.686;5.138;2023-02-21T08:22:43;102131.31;;;8.12;90.71
77062;BME280;65989;51.686;5.138;2023-02-21T08:25:10;102132.53;;;8.16;90.39
77062;BME280;65989;51.686;5.138;2023-02-21T08:27:38;102125.22;;;8.18;90.43
77062;BME280;65989;51.686;5.138;2023-02-21T08:30:05;102126.63;;;8.21;90.08
77062;BME280;65989;51.686;5.138;2023-02-21T08:32:33;102121.94;;;8.23;90.29
77062;BME280;65989;51.686;5.138;2023-02-21T08:34:59;102125.00;;;8.27;90.39
77062;BME280;65989;51.686;5.138;2023-02-21T08:37:25;102126.63;;;8.28;90.09
77062;BME280;65989;51.686;5.138;2023-02-21T08:39:58;102128.66;;;8.32;90.34
77062;BME280;65989;51.686;5.138;2023-02-21T08:42:24;102130.88;;;8.35;90.10
77062;BME280;65989;51.686;5.138;2023-02-21T08:44:49;102120.91;;;8.44;90.13
77062;BME280;65989;51.686;5.138;2023-02-21T08:47:16;102122.53;;;8.52;90.13
77062;BME280;65989;51.686;5.138;2023-02-21T08:49:45;102117.44;;;8.57;89.91
77062;BME280;65989;51.686;5.138;2023-02-21T08:52:12;102124.72;;;8.62;90.01
77062;BME280;65989;51.686;5.138;2023-02-21T08:54:38;102127.97;;;8.64;89.87
77062;BME280;65989;51.686;5.138;2023-02-21T08:57:04;102119.03;;;8.65;89.91
77062;BME280;65989;51.686;5.138;2023-02-21T08:59:29;102118.44;;;8.70;89.86
77062;BME280;65989;51.686;5.138;2023-02-21T09:01:58;102120.44;;;8.74;89.58
77062;BME280;65989;51.686;5.138;2023-02-21T09:04:23;102115.97;;;8.75;89.66
77062;BME280;65989;51.686;5.138;2023-02-21T09:06:49;102120.25;;;8.76;89.47
77062;BME280;65989;51.686;5.138;2023-02-21T09:09:15;102124.50;;;8.77;89.45
77062;BME280;65989;51.686;5.138;2023-02-21T09:11:40;102115.34;;;8.79;89.40
77062;BME280;65989;51.686;5.138;2023-02-21T09:14:11;102109.22;;;8.79;89.22
77062;BME280;65989;51.686;5.138;2023-02-21T09:16:36;102112.69;;;8.79;89.16
77062;BME280;65989;51.686;5.138;2023-02-21T09:19:02;102106.00;;;8.77;89.20
77062;BME280;65989;51.686;5.138;2023-02-21T09:21:32;102104.97;;;8.78;89.15
77062;BME280;65989;51.686;5.138;2023-02-21T09:23:57;102106.81;;;8.77;89.34
77062;BME280;65989;51.686;5.138;2023-02-21T09:26:24;102107.41;;;8.79;88.94
77062;BME280;65989;51.686;5.138;2023-02-21T09:28:53;102107.22;;;8.74;89.16
77062;BME280;65989;51.686;5.138;2023-02-21T09:31:19;102104.81;;;8.66;88.90
77062;BME280;65989;51.686;5.138;2023-02-21T09:33:44;102103.81;;;8.60;88.97
77062;BME280;65989;51.686;5.138;2023-02-21T09:36:10;102105.25;;;8.56;88.93
77062;BME280;65989;51.686;5.138;2023-02-21T09:38:36;102110.16;;;8.52;88.90
77062;BME280;65989;51.686;5.138;2023-02-21T09:41:11;102105.88;;;8.51;89.00
77062;BME280;65989;51.686;5.138;2023-02-21T09:43:52;102101.19;;;8.54;89.06
77062;BME280;65989;51.686;5.138;2023-02-21T09:46:33;102097.94;;;8.51;89.07
77062;BME280;65989;51.686;5.138;2023-02-21T09:49:01;102099.34;;;8.47;88.87
77062;BME280;65989;51.686;5.138;2023-02-21T09:51:30;102104.63;;;8.47;88.88
77062;BME280;65989;51.686;5.138;2023-02-21T09:53:57;102101.81;;;8.49;89.12
77062;BME280;65989;51.686;5.138;2023-02-21T09:56:34;102091.25;;;8.49;89.17
77062;BME280;65989;51.686;5.138;2023-02-21T09:59:01;102093.88;;;8.49;89.12
77062;BME280;65989;51.686;5.138;2023-02-21T10:01:37;102103.00;;;8.53;89.34
77062;BME280;65989;51.686;5.138;2023-02-21T10:06:54;102107.88;;;8.56;89.23
77062;BME280;65989;51.686;5.138;2023-02-21T10:12:13;102106.88;;;8.57;89.19
77062;BME280;65989;51.686;5.138;2023-02-21T10:17:28;102109.31;;;8.59;89.08
77062;BME280;65989;51.686;5.138;2023-02-21T10:20:02;102108.09;;;8.55;89.31
77062;BME280;65989;51.686;5.138;2023-02-21T10:22:35;102105.25;;;8.56;89.19
77062;BME280;65989;51.686;5.138;2023-02-21T10:25:20;102108.31;;;8.60;88.96
77062;BME280;65989;51.686;5.138;2023-02-21T10:27:46;102105.06;;;8.58;89.22
77062;BME280;65989;51.686;5.138;2023-02-21T10:32:49;102110.34;;;8.58;89.11
77062;BME280;65989;51.686;5.138;2023-02-21T10:35:14;102104.84;;;8.59;89.32
77062;BME280;65989;51.686;5.138;2023-02-21T10:37:43;102107.84;;;8.63;89.19
77062;BME280;65989;51.686;5.138;2023-02-21T10:43:12;102091.16;;;8.69;89.33
77062;BME280;65989;51.686;5.138;2023-02-21T10:45:47;102099.50;;;8.73;89.37
77062;BME280;65989;51.686;5.138;2023-02-21T10:48:18;102098.91;;;8.64;89.28
77062;BME280;65989;51.686;5.138;2023-02-21T10:50:50;102090.16;;;8.70;89.32
77062;BME280;65989;51.686;5.138;2023-02-21T10:59:04;102093.59;;;8.77;89.26
77062;BME280;65989;51.686;5.138;2023-02-21T11:01:44;102098.28;;;8.75;89.17
77062;BME280;65989;51.686;5.138;2023-02-21T11:06:58;102088.91;;;8.79;89.23
77062;BME280;65989;51.686;5.138;2023-02-21T11:17:24;102082.56;;;8.94;89.10
77062;BME280;65989;51.686;5.138;2023-02-21T11:22:40;102074.53;;;9.07;89.03
77062;BME280;65989;51.686;5.138;2023-02-21T11:28:06;102067.91;;;9.23;88.90
77062;BME280;65989;51.686;5.138;2023-02-21T11:33:39;102051.41;;;9.28;88.42
77062;BME280;65989;51.686;5.138;2023-02-21T11:36:14;102062.81;;;9.29;88.37
77062;BME280;65989;51.686;5.138;2023-02-21T11:38:45;102060.00;;;9.23;88.36
77062;BME280;65989;51.686;5.138;2023-02-21T11:41:35;102053.72;;;9.18;88.27
77062;BME280;65989;51.686;5.138;2023-02-21T11:44:01;102053.19;;;9.02;88.23
77062;BME280;65989;51.686;5.138;2023-02-21T11:46:34;102047.72;;;9.04;88.03
77062;BME280;65989;51.686;5.138;2023-02-21T11:49:16;102045.63;;;9.13;88.28
77062;BME280;65989;51.686;5.138;2023-02-21T11:51:56;102052.28;;;9.22;88.09
77062;BME280;65989;51.686;5.138;2023-02-21T11:54:26;102037.22;;;9.22;88.00
77062;BME280;65989;51.686;5.138;2023-02-21T12:10:45;102045.81;;;9.11;87.77
77062;BME280;65989;51.686;5.138;2023-02-21T12:16:34;102036.00;;;9.18;87.47
77062;BME280;65989;51.686;5.138;2023-02-21T12:19:08;102026.69;;;9.16;87.40
77062;BME280;65989;51.686;5.138;2023-02-21T12:22:01;102026.69;;;9.16;87.17
77062;BME280;65989;51.686;5.138;2023-02-21T12:46:35;102010.47;;;9.05;87.17
77062;BME280;65989;51.686;5.138;2023-02-21T12:50:04;102008.22;;;9.09;87.16
77062;BME280;65989;51.686;5.138;2023-02-21T12:57:31;102004.53;;;9.42;87.05
77062;BME280;65989;51.686;5.138;2023-02-21T13:00:26;101999.50;;;9.59;86.82
77062;BME280;65989;51.686;5.138;2023-02-21T13:05:57;101990.31;;;9.80;86.51
77062;BME280;65989;51.686;5.138;2023-02-21T13:08:52;101994.72;;;9.86;86.09
77062;BME280;65989;51.686;5.138;2023-02-21T13:11:25;101990.63;;;9.91;86.02
77062;BME280;65989;51.686;5.138;2023-02-21T13:13:55;101989.16;;;9.95;85.55
77062;BME280;65989;51.686;5.138;2023-02-21T13:16:20;101990.69;;;10.02;85.23
77062;BME280;65989;51.686;5.138;2023-02-21T13:18:54;101978.72;;;10.00;85.28
77062;BME280;65989;51.686;5.138;2023-02-21T13:21:35;101988.03;;;10.02;85.15
77062;BME280;65989;51.686;5.138;2023-02-21T13:24:14;101984.81;;;10.00;85.06
77062;BME280;65989;51.686;5.138;2023-02-21T13:29:26;101977.66;;;9.82;84.77
77062;BME280;65989;51.686;5.138;2023-02-21T13:32:05;101982.44;;;9.74;84.71
77062;BME280;65989;51.686;5.138;2023-02-21T13:34:38;101981.53;;;9.61;84.77
77062;BME280;65989;51.686;5.138;2023-02-21T13:37:09;101971.69;;;9.50;84.77
77062;BME280;65989;51.686;5.138;2023-02-21T13:39:44;101973.75;;;9.48;84.73
77062;BME280;65989;51.686;5.138;2023-02-21T13:42:16;101967.25;;;9.44;85.00
77062;BME280;65989;51.686;5.138;2023-02-21T13:45:21;101967.03;;;9.45;84.93
77062;BME280;65989;51.686;5.138;2023-02-21T13:55:34;101962.91;;;9.31;84.67
77062;BME280;65989;51.686;5.138;2023-02-21T14:03:01;101965.88;;;9.16;84.57
77062;BME280;65989;51.686;5.138;2023-02-21T14:08:33;101967.50;;;9.17;84.55
77062;BME280;65989;51.686;5.138;2023-02-21T14:11:21;101969.91;;;9.18;84.51
77062;BME280;65989;51.686;5.138;2023-02-21T14:13:49;101963.28;;;9.09;84.57
77062;BME280;65989;51.686;5.138;2023-02-21T14:19:46;101959.03;;;9.01;84.62
77062;BME280;65989;51.686;5.138;2023-02-21T14:22:25;101958.44;;;8.99;84.58
77062;BME280;65989;51.686;5.138;2023-02-21T14:27:31;101952.41;;;8.92;84.85
77062;BME280;65989;51.686;5.138;2023-02-21T14:32:27;101936.59;;;8.85;84.97
77062;BME280;65989;51.686;5.138;2023-02-21T14:34:56;101939.63;;;8.89;84.95
77062;BME280;65989;51.686;5.138;2023-02-21T15:05:22;101921.75;;;8.84;84.93
77062;BME280;65989;51.686;5.138;2023-02-21T15:10:28;101920.34;;;8.81;85.18
77062;BME280;65989;51.686;5.138;2023-02-21T15:13:00;101918.94;;;8.79;85.14
77062;BME280;65989;51.686;5.138;2023-02-21T15:15:28;101920.78;;;8.78;85.29
77062;BME280;65989;51.686;5.138;2023-02-21T15:18:00;101918.78;;;8.74;85.08
77062;BME280;65989;51.686;5.138;2023-02-21T15:20:26;101922.03;;;8.76;85.27
77062;BME280;65989;51.686;5.138;2023-02-21T15:23:15;101929.72;;;8.77;85.31
77062;BME280;65989;51.686;5.138;2023-02-21T15:25:42;101923.69;;;8.70;85.04
77062;BME280;65989;51.686;5.138;2023-02-21T15:28:22;101920.63;;;8.73;85.33
77062;BME280;65989;51.686;5.138;2023-02-21T15:33:27;101926.75;;;8.67;85.28
77062;BME280;65989;51.686;5.138;2023-02-21T15:36:02;101919.84;;;8.66;85.21
77062;BME280;65989;51.686;5.138;2023-02-21T15:41:25;101909.88;;;8.68;85.36
77062;BME280;65989;51.686;5.138;2023-02-21T15:46:29;101907.44;;;8.66;85.18
77062;BME280;65989;51.686;5.138;2023-02-21T15:48:59;101911.50;;;8.69;85.22
77062;BME280;65989;51.686;5.138;2023-02-21T15:51:25;101904.59;;;8.68;85.16
77062;BME280;65989;51.686;5.138;2023-02-21T15:54:25;101909.44;;;8.71;85.36
77062;BME280;65989;51.686;5.138;2023-02-21T15:59:27;101904.25;;;8.58;85.02
77062;BME280;65989;51.686;5.138;2023-02-21T16:02:16;101915.25;;;8.55;85.04
77062;BME280;65989;51.686;5.138;2023-02-21T16:04:46;101916.47;;;8.52;85.05
77062;BME280;65989;51.686;5.138;2023-02-21T16:07:35;101912.00;;;8.52;85.19
77062;BME280;65989;51.686;5.138;2023-02-21T16:10:09;101904.06;;;8.46;85.16
77062;BME280;65989;51.686;5.138;2023-02-21T16:12:40;101900.63;;;8.45;85.34
77062;BME280;65989;51.686;5.138;2023-02-21T16:15:25;101907.16;;;8.43;85.45
77062;BME280;65989;51.686;5.138;2023-02-21T16:17:55;101906.34;;;8.42;85.36
77062;BME280;65989;51.686;5.138;2023-02-21T16:20:29;101902.31;;;8.40;85.30
77062;BME280;65989;51.686;5.138;2023-02-21T16:26:21;101908.59;;;8.39;85.55
77062;BME280;65989;51.686;5.138;2023-02-21T16:28:45;101902.72;;;8.36;85.38
77062;BME280;65989;51.686;5.138;2023-02-21T16:31:31;101903.16;;;8.33;85.62
77062;BME280;65989;51.686;5.138;2023-02-21T16:33:57;101904.22;;;8.26;85.51